createdAt,value
2023-05-08T00:01:54.698Z,8.00
2023-05-08T00:04:57.737Z,7.67
2023-05-08T00:08:02.255Z,7.13
2023-05-08T00:11:05.220Z,7.77
2023-05-08T00:14:08.233Z,7.57
2023-05-08T00:17:11.359Z,7.23
2023-05-08T00:20:14.715Z,8.00
2023-05-08T00:23:19.116Z,8.00
2023-05-08T00:26:22.069Z,8.33
2023-05-08T00:29:25.054Z,8.73
2023-05-08T00:32:28.928Z,7.70
2023-05-08T00:35:31.924Z,8.40
2023-05-08T00:38:37.453Z,8.40
2023-05-08T00:41:40.339Z,8.97
2023-05-08T00:44:43.215Z,9.03
2023-05-08T00:47:46.350Z,8.37
2023-05-08T00:50:49.579Z,8.73
2023-05-08T00:53:54.358Z,9.70
2023-05-08T00:56:57.590Z,8.77
2023-05-08T01:00:01.956Z,10.00
2023-05-08T01:03:06.058Z,9.23
2023-05-08T01:06:09.442Z,9.20
2023-05-08T01:09:13.661Z,8.23
2023-05-08T01:12:23.766Z,9.43
2023-05-08T01:15:31.237Z,9.33
2023-05-08T01:18:39.233Z,8.97
2023-05-08T01:21:50.392Z,8.87
2023-05-08T01:25:17.654Z,9.00
2023-05-08T01:28:39.869Z,10.07
2023-05-08T01:31:54.989Z,9.23
2023-05-08T01:35:07.882Z,9.50
2023-05-08T01:38:19.088Z,9.03
2023-05-08T01:41:28.195Z,9.60
2023-05-08T01:44:38.297Z,9.83
2023-05-08T01:47:43.271Z,9.53
2023-05-08T01:50:53.266Z,9.67
2023-05-08T01:54:01.830Z,10.33
2023-05-08T01:57:06.192Z,9.13
2023-05-08T02:00:10.440Z,10.10
2023-05-08T02:03:15.976Z,9.33
2023-05-08T02:06:23.218Z,10.63
2023-05-08T02:09:29.680Z,9.50
2023-05-08T02:12:33.672Z,9.83
2023-05-08T02:15:38.708Z,10.40
2023-05-08T02:18:47.970Z,9.77
2023-05-08T02:21:53.028Z,10.50
2023-05-08T02:24:58.549Z,10.93
2023-05-08T02:28:02.444Z,10.90
2023-05-08T02:31:06.822Z,9.57
2023-05-08T02:34:11.571Z,10.20
2023-05-08T02:37:17.695Z,10.20
2023-05-08T02:40:23.403Z,9.43
2023-05-08T02:43:26.388Z,9.10
2023-05-08T02:46:36.386Z,9.77
2023-05-08T02:49:44.904Z,9.43
2023-05-08T02:52:52.615Z,8.60
2023-05-08T02:56:02.299Z,8.93
2023-05-08T02:59:16.709Z,8.83
2023-05-08T03:02:28.350Z,8.07
2023-05-08T03:05:33.731Z,8.90
2023-05-08T03:08:38.957Z,8.13
2023-05-08T03:11:43.262Z,8.80
2023-05-08T03:14:49.748Z,8.77
2023-05-08T03:17:55.989Z,8.27
2023-05-08T03:21:01.369Z,8.73
2023-05-08T03:24:07.930Z,9.17
2023-05-08T03:27:11.388Z,8.00
2023-05-08T03:30:15.928Z,8.53
2023-05-08T03:33:20.227Z,8.03
2023-05-08T03:36:26.858Z,8.30
2023-05-08T03:39:31.163Z,7.80
2023-05-08T03:42:34.281Z,8.53
2023-05-08T03:45:38.247Z,8.37
2023-05-08T03:48:42.274Z,7.77
2023-05-08T03:51:46.298Z,8.00
2023-05-08T03:54:50.484Z,7.50
2023-05-08T03:58:00.930Z,8.17
2023-05-08T04:01:08.865Z,8.30
2023-05-08T04:04:18.427Z,7.90
2023-05-08T04:07:28.953Z,7.87
2023-05-08T04:10:38.669Z,8.63
2023-05-08T04:13:48.649Z,8.90
2023-05-08T04:16:57.978Z,8.17
2023-05-08T04:20:05.054Z,7.53
2023-05-08T04:23:09.887Z,8.20
2023-05-08T04:26:16.550Z,8.03
2023-05-08T04:29:20.522Z,7.73
2023-05-08T04:32:24.384Z,8.17
2023-05-08T04:35:27.577Z,8.10
2023-05-08T04:38:30.855Z,8.00
2023-05-08T04:41:35.492Z,7.63
2023-05-08T04:44:38.449Z,7.90
2023-05-08T04:47:41.359Z,7.97
2023-05-08T04:50:44.278Z,8.63
2023-05-08T04:53:47.167Z,7.93
2023-05-08T04:56:51.408Z,8.33
2023-05-08T04:59:54.281Z,8.37
2023-05-08T05:02:57.218Z,8.93
2023-05-08T05:06:00.680Z,8.40
2023-05-08T05:09:03.621Z,8.53
2023-05-08T05:12:08.264Z,9.00
2023-05-08T05:15:12.446Z,7.50
2023-05-08T05:18:15.569Z,7.63
2023-05-08T05:21:18.451Z,8.73
2023-05-08T05:24:21.316Z,8.50
2023-05-08T05:27:25.592Z,7.90
2023-05-08T05:30:28.553Z,8.93
2023-05-08T05:33:31.417Z,7.73
2023-05-08T05:36:34.729Z,7.63
2023-05-08T05:39:37.896Z,8.27
2023-05-08T05:42:42.097Z,8.40
2023-05-08T05:45:45.195Z,8.07
2023-05-08T05:48:48.067Z,8.73
2023-05-08T05:51:50.931Z,8.23
2023-05-08T05:54:53.757Z,9.03
2023-05-08T05:57:57.937Z,8.87
2023-05-08T06:01:02.083Z,8.60
2023-05-08T06:04:05.431Z,9.63
2023-05-08T06:07:08.414Z,7.80
2023-05-08T06:10:12.026Z,9.23
2023-05-08T06:13:16.521Z,8.37
2023-05-08T06:16:20.708Z,9.30
2023-05-08T06:19:24.472Z,9.60
2023-05-08T06:22:27.325Z,10.07
2023-05-08T06:25:31.037Z,8.67
2023-05-08T06:28:35.460Z,9.30
2023-05-08T06:31:38.362Z,9.50
2023-05-08T06:34:41.195Z,9.80
2023-05-08T06:37:44.060Z,9.33
2023-05-08T06:40:47.378Z,9.13
2023-05-08T06:43:51.730Z,9.83
2023-05-08T06:46:55.317Z,10.27
2023-05-08T06:49:58.424Z,9.27
2023-05-08T06:53:01.316Z,8.33
2023-05-08T06:56:04.181Z,9.73
2023-05-08T06:59:09.246Z,8.70
2023-05-08T07:02:12.450Z,9.87
2023-05-08T07:05:15.679Z,10.23
2023-05-08T07:08:18.778Z,9.23
2023-05-08T07:11:22.138Z,8.43
2023-05-08T07:14:27.408Z,10.13
2023-05-08T07:17:30.863Z,9.80
2023-05-08T07:20:33.724Z,8.70
2023-05-08T07:23:36.589Z,9.80
2023-05-08T07:26:39.449Z,10.47
2023-05-08T07:29:43.661Z,9.33
2023-05-08T07:32:46.637Z,9.70
2023-05-08T07:35:49.717Z,9.70
2023-05-08T07:38:52.728Z,9.30
2023-05-08T07:41:55.628Z,9.57
2023-05-08T07:44:59.856Z,9.37
2023-05-08T07:48:02.822Z,10.30
2023-05-08T07:51:06.294Z,8.27
2023-05-08T07:54:09.201Z,9.90
2023-05-08T07:57:12.352Z,10.17
2023-05-08T08:00:17.855Z,10.47
2023-05-08T08:03:21.129Z,8.67
2023-05-08T08:06:24.195Z,9.40
2023-05-08T08:09:27.146Z,10.03
2023-05-08T08:12:30.990Z,10.57
2023-05-08T08:15:35.389Z,8.70
2023-05-08T08:18:38.401Z,9.97
2023-05-08T08:21:44.367Z,9.63
2023-05-08T08:24:47.267Z,10.33
2023-05-08T08:27:50.222Z,10.07
2023-05-08T08:30:54.625Z,10.63
2023-05-08T08:33:57.591Z,10.30
2023-05-08T08:37:00.542Z,10.30
2023-05-08T08:40:03.503Z,10.90
2023-05-08T08:43:06.890Z,10.30
2023-05-08T08:46:15.454Z,9.83
2023-05-08T08:49:20.099Z,11.00
2023-05-08T08:52:31.715Z,11.30
2023-05-08T08:55:37.799Z,10.57
2023-05-08T08:58:51.082Z,10.70
2023-05-08T09:01:59.754Z,11.37
2023-05-08T09:05:03.934Z,11.27
2023-05-08T09:08:07.809Z,11.67
2023-05-08T09:11:10.692Z,11.27
2023-05-08T09:14:13.991Z,11.83
2023-05-08T09:17:18.495Z,10.80
2023-05-08T09:20:22.125Z,10.80
2023-05-08T09:23:25.023Z,11.07
2023-05-08T09:26:33.694Z,11.07
2023-05-08T09:29:36.542Z,11.17
2023-05-08T09:32:42.846Z,11.57
2023-05-08T09:35:45.724Z,11.50
2023-05-08T09:38:48.527Z,11.70
2023-05-08T09:42:01.768Z,12.10
2023-05-08T09:45:05.953Z,11.50
2023-05-08T09:48:11.770Z,12.03
2023-05-08T09:51:14.647Z,11.73
2023-05-08T09:54:19.286Z,12.77
2023-05-08T09:57:22.083Z,12.83
2023-05-08T10:00:26.003Z,12.70
2023-05-08T10:03:48.074Z,11.53
2023-05-08T10:06:59.265Z,11.33
2023-05-08T10:10:03.790Z,13.33
2023-05-08T10:13:07.650Z,12.13
2023-05-08T10:16:13.391Z,12.63
2023-05-08T10:19:19.317Z,13.93
2023-05-08T10:22:26.010Z,13.17
2023-05-08T10:25:33.339Z,12.50
2023-05-08T10:28:43.897Z,13.18
2023-05-08T10:31:49.960Z,13.03
2023-05-08T10:34:59.837Z,12.97
2023-05-08T10:38:04.155Z,13.27
2023-05-08T10:41:07.579Z,13.40
2023-05-08T10:44:10.895Z,11.33
2023-05-08T10:47:22.329Z,13.77
2023-05-08T10:50:35.694Z,13.57
2023-05-08T10:53:44.457Z,13.00
2023-05-08T10:56:47.691Z,11.95
2023-05-08T10:59:50.534Z,14.18
2023-05-08T11:02:53.581Z,14.02
2023-05-08T11:05:59.107Z,13.63
2023-05-08T11:09:02.585Z,14.05
2023-05-08T11:12:09.372Z,13.52
2023-05-08T11:15:12.333Z,15.73
2023-05-08T11:18:18.232Z,13.82
2023-05-08T11:21:23.077Z,14.85
2023-05-08T11:24:35.997Z,13.10
2023-05-08T11:27:42.474Z,14.00
2023-05-08T11:30:46.511Z,14.25
2023-05-08T11:33:49.608Z,13.82
2023-05-08T11:37:03.553Z,13.07
2023-05-08T11:40:21.696Z,13.57
2023-05-08T11:43:57.954Z,10.85
2023-05-08T11:47:06.372Z,12.13
2023-05-08T11:50:10.478Z,11.93
2023-05-08T11:53:15.259Z,13.63
2023-05-08T11:56:19.129Z,34.55
2023-05-08T11:59:22.646Z,15.65
2023-05-08T12:02:36.277Z,15.90
2023-05-08T12:05:39.615Z,15.02
2023-05-08T12:08:44.264Z,14.50
2023-05-08T12:11:47.552Z,14.77
2023-05-08T12:14:51.892Z,12.85
2023-05-08T12:18:02.864Z,13.98
2023-05-08T12:21:06.317Z,12.43
2023-05-08T12:24:12.800Z,14.20
2023-05-08T12:27:16.126Z,11.80
2023-05-08T12:30:19.946Z,14.50
2023-05-08T12:33:23.588Z,14.32
2023-05-08T12:36:27.174Z,11.23
2023-05-08T12:39:36.147Z,12.27
2023-05-08T12:42:46.202Z,12.68
2023-05-08T12:45:53.325Z,11.85
2023-05-08T12:49:04.631Z,13.35
2023-05-08T12:52:08.548Z,12.50
2023-05-08T12:55:29.024Z,11.73
2023-05-08T12:58:33.213Z,13.38
2023-05-08T13:01:36.187Z,14.35
2023-05-08T13:04:39.284Z,11.80
2023-05-08T13:07:42.312Z,13.38
2023-05-08T13:10:48.410Z,13.20
2023-05-08T13:13:51.352Z,12.55
2023-05-08T13:16:54.392Z,13.33
2023-05-08T13:19:57.360Z,13.23
2023-05-08T13:23:00.365Z,12.90
2023-05-08T13:26:05.112Z,12.07
2023-05-08T13:29:08.006Z,12.97
2023-05-08T13:32:10.991Z,13.35
2023-05-08T13:35:13.940Z,13.40
2023-05-08T13:38:16.818Z,12.15
2023-05-08T13:41:21.103Z,11.48
2023-05-08T13:44:23.943Z,11.10
2023-05-08T13:47:26.889Z,11.63
2023-05-08T13:50:29.939Z,10.82
2023-05-08T13:53:32.990Z,10.30
2023-05-08T13:56:37.233Z,9.25
2023-05-08T13:59:40.622Z,9.60
2023-05-08T14:02:43.617Z,10.03
2023-05-08T14:05:46.677Z,9.77
2023-05-08T14:08:51.464Z,8.70
2023-05-08T14:11:57.127Z,9.02
2023-05-08T14:15:00.452Z,8.20
2023-05-08T14:18:03.358Z,10.27
2023-05-08T14:21:06.762Z,10.17
2023-05-08T14:24:10.195Z,10.45
2023-05-08T14:27:14.837Z,10.88
2023-05-08T14:30:18.179Z,10.07
2023-05-08T14:33:21.949Z,11.07
2023-05-08T14:36:25.326Z,10.80
2023-05-08T14:39:28.966Z,12.13
2023-05-08T14:42:34.071Z,10.87
2023-05-08T14:45:37.669Z,12.47
2023-05-08T14:48:40.915Z,13.00
2023-05-08T14:51:44.175Z,12.40
2023-05-08T14:54:52.880Z,12.53
2023-05-08T14:57:57.990Z,12.70
2023-05-08T15:01:01.508Z,12.37
2023-05-08T15:04:04.893Z,12.00
2023-05-08T15:07:08.293Z,12.37
2023-05-08T15:10:11.861Z,12.00
2023-05-08T15:13:16.526Z,13.27
2023-05-08T15:16:19.809Z,11.48
2023-05-08T15:19:23.603Z,13.23
2023-05-08T15:22:27.919Z,12.10
2023-05-08T15:25:31.752Z,14.67
2023-05-08T15:28:36.526Z,13.43
2023-05-08T15:31:39.862Z,14.63
2023-05-08T15:34:43.240Z,13.27
2023-05-08T15:37:46.512Z,13.40
2023-05-08T15:40:49.778Z,14.23
2023-05-08T15:43:54.364Z,14.40
2023-05-08T15:46:57.647Z,14.00
2023-05-08T15:50:01.006Z,13.43
2023-05-08T15:53:04.961Z,14.03
2023-05-08T15:56:08.377Z,14.17
2023-05-08T15:59:13.022Z,13.90
2023-05-08T16:02:16.391Z,12.77
2023-05-08T16:05:19.789Z,13.93
2023-05-08T16:08:23.074Z,14.70
2023-05-08T16:11:26.332Z,14.80
2023-05-08T16:14:30.979Z,13.50
2023-05-08T16:17:34.373Z,13.50
2023-05-08T16:20:37.652Z,13.60
2023-05-08T16:23:40.927Z,13.47
2023-05-08T16:26:44.198Z,13.63
2023-05-08T16:29:48.820Z,13.93
2023-05-08T16:32:52.106Z,12.87
2023-05-08T16:35:55.423Z,13.80
2023-05-08T16:38:58.701Z,14.17
2023-05-08T16:42:01.988Z,14.30
2023-05-08T16:45:07.442Z,14.70
2023-05-08T16:48:10.879Z,14.73
2023-05-08T16:51:14.143Z,14.97
2023-05-08T16:54:17.605Z,15.47
2023-05-08T16:57:20.853Z,15.93
2023-05-08T17:00:26.589Z,13.67
2023-05-08T17:03:29.916Z,14.07
2023-05-08T17:06:33.856Z,16.00
2023-05-08T17:09:37.114Z,14.40
2023-05-08T17:12:40.657Z,14.50
2023-05-08T17:15:45.480Z,14.33
2023-05-08T17:18:48.854Z,14.73
2023-05-08T17:21:52.104Z,14.80
2023-05-08T17:24:55.360Z,14.47
2023-05-08T17:27:58.469Z,14.30
2023-05-08T17:31:02.669Z,14.53
2023-05-08T17:34:05.843Z,14.23
2023-05-08T17:37:08.782Z,15.50
2023-05-08T17:40:12.716Z,15.80
2023-05-08T17:43:15.864Z,14.27
2023-05-08T17:46:20.224Z,13.50
2023-05-08T17:49:23.362Z,14.23
2023-05-08T17:52:26.398Z,14.17
2023-05-08T17:55:31.324Z,13.90
2023-05-08T17:58:34.216Z,14.43
2023-05-08T18:01:38.587Z,15.17
2023-05-08T18:04:41.666Z,13.57
2023-05-08T18:07:44.519Z,13.07
2023-05-08T18:10:47.768Z,15.00
2023-05-08T18:13:51.408Z,14.57
2023-05-08T18:16:55.683Z,14.23
2023-05-08T18:19:58.550Z,14.73
2023-05-08T18:23:01.821Z,14.07
2023-05-08T18:26:04.908Z,13.67
2023-05-08T18:29:07.873Z,14.60
2023-05-08T18:32:12.291Z,13.80
2023-05-08T18:35:15.259Z,15.67
2023-05-08T18:38:18.560Z,15.07
2023-05-08T18:41:21.460Z,14.27
2023-05-08T18:44:24.673Z,12.80
2023-05-08T18:47:28.971Z,11.10
2023-05-08T18:50:31.836Z,12.43
2023-05-08T18:53:38.186Z,11.30
2023-05-08T18:56:41.372Z,11.87
2023-05-08T18:59:44.427Z,12.33
2023-05-08T19:02:48.746Z,12.17
2023-05-08T19:05:52.181Z,12.90
2023-05-08T19:08:55.067Z,12.13
2023-05-08T19:11:57.906Z,13.60
2023-05-08T19:15:00.759Z,13.50
2023-05-08T19:18:05.518Z,14.10
2023-05-08T19:21:08.731Z,13.97
2023-05-08T19:24:11.610Z,13.50
2023-05-08T19:27:14.462Z,13.87
2023-05-08T19:30:17.462Z,15.50
2023-05-08T19:33:21.651Z,15.87
2023-05-08T19:36:24.531Z,15.67
2023-05-08T19:39:27.401Z,14.50
2023-05-08T19:42:30.974Z,13.53
2023-05-08T19:45:33.904Z,13.87
2023-05-08T19:48:38.224Z,13.80
2023-05-08T19:51:41.154Z,13.33
2023-05-08T19:54:45.617Z,14.30
2023-05-08T19:57:48.936Z,13.33
2023-05-08T20:00:52.044Z,13.37
2023-05-08T20:03:59.772Z,14.73
2023-05-08T20:07:03.961Z,16.20
2023-05-08T20:10:08.397Z,15.00
2023-05-08T20:13:11.464Z,15.07
2023-05-08T20:16:14.505Z,16.10
2023-05-08T20:19:18.761Z,15.70
2023-05-08T20:22:22.407Z,14.97
2023-05-08T20:25:25.330Z,16.70
2023-05-08T20:28:28.334Z,17.40
2023-05-08T20:31:31.295Z,18.00
2023-05-08T20:34:36.313Z,16.30
2023-05-08T20:37:44.393Z,18.27
2023-05-08T20:40:47.331Z,17.53
2023-05-08T20:43:50.257Z,17.17
2023-05-08T20:46:53.522Z,17.97
2023-05-08T20:49:57.770Z,16.70
2023-05-08T20:53:00.654Z,16.87
2023-05-08T20:56:04.327Z,18.90
2023-05-08T20:59:07.241Z,18.13
2023-05-08T21:02:10.100Z,16.93
2023-05-08T21:05:14.581Z,17.97
2023-05-08T21:08:17.671Z,18.13
2023-05-08T21:11:21.099Z,18.07
2023-05-08T21:14:24.031Z,17.73
2023-05-08T21:17:27.072Z,18.00
2023-05-08T21:20:33.141Z,18.40
2023-05-08T21:23:36.020Z,17.43
2023-05-08T21:26:38.872Z,19.70
2023-05-08T21:29:41.720Z,18.50
2023-05-08T21:32:46.131Z,18.37
2023-05-08T21:35:50.364Z,18.93
2023-05-08T21:38:53.231Z,17.27
2023-05-08T21:41:56.074Z,18.50
2023-05-08T21:44:59.218Z,19.23
2023-05-08T21:48:03.818Z,19.40
2023-05-08T21:51:08.261Z,18.60
2023-05-08T21:54:11.153Z,19.50
2023-05-08T21:57:14.007Z,19.23
2023-05-08T22:00:17.624Z,19.80
2023-05-08T22:03:20.577Z,19.40
2023-05-08T22:06:24.837Z,19.17
2023-05-08T22:09:27.918Z,18.40
2023-05-08T22:12:30.734Z,18.83
2023-05-08T22:15:33.814Z,19.93
2023-05-08T22:18:36.825Z,18.47
2023-05-08T22:21:41.861Z,19.80
2023-05-08T22:24:44.696Z,18.57
2023-05-08T22:27:47.549Z,17.37
2023-05-08T22:30:50.383Z,17.70
2023-05-08T22:33:53.234Z,17.90
2023-05-08T22:36:57.418Z,17.97
2023-05-08T22:40:00.335Z,17.20
2023-05-08T22:43:03.497Z,15.53
2023-05-08T22:46:07.451Z,16.43
2023-05-08T22:49:10.500Z,16.10
2023-05-08T22:52:14.693Z,16.47
2023-05-08T22:55:18.421Z,14.80
2023-05-08T22:58:21.313Z,16.37
2023-05-08T23:01:24.206Z,15.60
2023-05-08T23:04:27.137Z,16.93
2023-05-08T23:07:31.328Z,14.83
2023-05-08T23:10:34.194Z,15.47
2023-05-08T23:13:37.537Z,14.57
2023-05-08T23:16:40.400Z,15.77
2023-05-08T23:19:43.416Z,15.27
2023-05-08T23:22:47.577Z,14.77
2023-05-08T23:25:50.400Z,14.77
2023-05-08T23:28:53.330Z,15.17
2023-05-08T23:31:56.210Z,14.77
2023-05-08T23:34:59.133Z,13.77
2023-05-08T23:38:03.298Z,13.97
2023-05-08T23:41:06.179Z,13.70
2023-05-08T23:44:09.476Z,13.60
2023-05-08T23:47:12.412Z,13.57
2023-05-08T23:50:15.289Z,13.40
2023-05-08T23:53:19.471Z,13.53
2023-05-08T23:56:23.118Z,14.07
2023-05-08T23:59:26.136Z,13.00
